createdAt,value
2023-05-19T00:01:00.666Z,100883.84
2023-05-19T00:04:07.101Z,100884.31
2023-05-19T00:07:13.566Z,100879.03
2023-05-19T00:10:18.373Z,100884.66
2023-05-19T00:13:21.810Z,100885.44
2023-05-19T00:16:27.594Z,100888.16
2023-05-19T00:19:32.469Z,100888.97
2023-05-19T00:22:37.073Z,100887.03
2023-05-19T00:25:39.547Z,100897.09
2023-05-19T00:28:42.979Z,100887.03
2023-05-19T00:31:46.412Z,100886.16
2023-05-19T00:34:50.978Z,100875.03
2023-05-19T00:37:56.315Z,100872.91
2023-05-19T00:41:01.336Z,100880.13
2023-05-19T00:44:03.832Z,100867.19
2023-05-19T00:47:08.445Z,100869.88
2023-05-19T00:50:12.331Z,100869.41
2023-05-19T00:53:17.447Z,100865.22
2023-05-19T00:56:22.059Z,100869.03
2023-05-19T00:59:26.047Z,100863.94
2023-05-19T01:02:29.848Z,100875.09
2023-05-19T01:05:32.786Z,100862.62
2023-05-19T01:08:37.483Z,100864.03
2023-05-19T01:11:40.820Z,100861.66
2023-05-19T01:14:45.378Z,100864.16
2023-05-19T01:18:07.516Z,100859.38
2023-05-19T01:21:44.410Z,100862.88
2023-05-19T01:25:15.589Z,100865.59
2023-05-19T01:28:48.922Z,100870.53
2023-05-19T01:31:55.360Z,100867.81
2023-05-19T01:34:58.810Z,100871.81
2023-05-19T01:38:03.461Z,100876.53
2023-05-19T01:41:07.597Z,100868.09
2023-05-19T01:44:11.778Z,100872.56
2023-05-19T01:47:15.485Z,100875.75
2023-05-19T01:50:18.093Z,100862.50
2023-05-19T01:53:20.444Z,100861.63
2023-05-19T01:56:38.846Z,100859.16
2023-05-19T02:00:07.932Z,100848.31
2023-05-19T02:03:38.429Z,100855.34
2023-05-19T02:07:22.556Z,100860.44
2023-05-19T02:10:32.466Z,100869.06
2023-05-19T02:13:41.690Z,100869.19
2023-05-19T02:16:48.732Z,100863.16
2023-05-19T02:19:52.291Z,100865.69
2023-05-19T02:22:54.904Z,100867.37
2023-05-19T02:25:58.638Z,100864.37
2023-05-19T02:29:02.017Z,100862.78
2023-05-19T02:32:06.978Z,100859.56
2023-05-19T02:35:10.110Z,100864.19
2023-05-19T02:38:13.464Z,100866.38
2023-05-19T02:41:16.066Z,100864.00
2023-05-19T02:44:19.846Z,100861.38
2023-05-19T02:47:22.908Z,100868.72
2023-05-19T02:50:25.556Z,100857.28
2023-05-19T02:53:30.028Z,100854.84
2023-05-19T02:56:32.353Z,100860.47
2023-05-19T02:59:36.705Z,100860.37
2023-05-19T03:02:41.882Z,100859.06
2023-05-19T03:05:44.757Z,100861.28
2023-05-19T03:08:47.438Z,100864.78
2023-05-19T03:11:50.138Z,100865.41
2023-05-19T03:14:52.871Z,100869.81
2023-05-19T03:17:57.156Z,100869.59
2023-05-19T03:20:59.732Z,100869.59
2023-05-19T03:24:04.507Z,100874.63
2023-05-19T03:27:07.303Z,100877.94
2023-05-19T03:30:10.999Z,100883.97
2023-05-19T03:33:15.219Z,100886.16
2023-05-19T03:36:20.027Z,100875.62
2023-05-19T03:39:23.412Z,100876.12
2023-05-19T03:42:26.625Z,100871.22
2023-05-19T03:45:29.274Z,100874.13
2023-05-19T03:48:37.159Z,100877.94
2023-05-19T03:51:43.364Z,100873.66
2023-05-19T03:54:54.131Z,100876.91
2023-05-19T03:57:57.458Z,100869.91
2023-05-19T04:01:00.764Z,100872.59
2023-05-19T04:04:03.953Z,100876.91
2023-05-19T04:07:07.442Z,100882.66
2023-05-19T04:10:13.138Z,100883.75
2023-05-19T04:13:15.502Z,100877.63
2023-05-19T04:16:20.060Z,100884.47
2023-05-19T04:19:23.520Z,100885.97
2023-05-19T04:22:27.616Z,100888.59
2023-05-19T04:25:30.012Z,100899.28
2023-05-19T04:28:36.054Z,100896.47
2023-05-19T04:31:38.580Z,100898.69
2023-05-19T04:34:45.359Z,100894.25
2023-05-19T04:37:48.533Z,100905.50
2023-05-19T04:40:52.522Z,100900.09
2023-05-19T04:43:57.567Z,100905.88
2023-05-19T04:47:00.305Z,100910.69
2023-05-19T04:50:03.257Z,100910.88
2023-05-19T04:53:05.855Z,100917.47
2023-05-19T04:56:09.874Z,100917.00
2023-05-19T04:59:12.673Z,100918.16
2023-05-19T05:02:15.470Z,100918.84
2023-05-19T05:05:18.190Z,100917.31
2023-05-19T05:08:23.353Z,100919.13
2023-05-19T05:11:26.767Z,100912.63
2023-05-19T05:14:30.114Z,100924.47
2023-05-19T05:17:35.448Z,100922.28
2023-05-19T05:20:38.516Z,100931.78
2023-05-19T05:23:41.453Z,100927.41
2023-05-19T05:26:45.043Z,100930.47
2023-05-19T05:29:48.748Z,100934.88
2023-05-19T05:32:52.069Z,100933.31
2023-05-19T05:35:58.371Z,100935.44
2023-05-19T05:39:02.492Z,100928.87
2023-05-19T05:42:05.220Z,100928.75
2023-05-19T05:45:08.135Z,100936.75
2023-05-19T05:48:11.524Z,100934.75
2023-05-19T05:51:14.184Z,100940.66
2023-05-19T05:54:21.701Z,100941.13
2023-05-19T05:57:25.170Z,100938.53
2023-05-19T06:00:29.006Z,100935.41
2023-05-19T06:03:32.269Z,100936.69
2023-05-19T06:06:40.736Z,100942.25
2023-05-19T06:09:43.729Z,100940.19
2023-05-19T06:12:46.088Z,100940.84
2023-05-19T06:15:48.744Z,100947.75
2023-05-19T06:18:51.373Z,100946.94
2023-05-19T06:21:54.006Z,100947.09
2023-05-19T06:24:56.465Z,100945.22
2023-05-19T06:27:59.113Z,100953.84
2023-05-19T06:31:01.688Z,100957.38
2023-05-19T06:34:05.267Z,100960.59
2023-05-19T06:37:07.933Z,100963.00
2023-05-19T06:40:12.024Z,100964.75
2023-05-19T06:43:14.833Z,100967.34
2023-05-19T06:46:21.113Z,100975.31
2023-05-19T06:49:24.021Z,100979.34
2023-05-19T06:52:26.687Z,100981.12
2023-05-19T06:55:29.638Z,100974.56
2023-05-19T06:58:33.102Z,100984.97
2023-05-19T07:01:36.346Z,100986.72
2023-05-19T07:04:39.943Z,100988.78
2023-05-19T07:07:42.575Z,100984.84
2023-05-19T07:10:47.066Z,100982.41
2023-05-19T07:13:50.200Z,100974.94
2023-05-19T07:16:53.645Z,100975.09
2023-05-19T07:19:56.180Z,100981.75
2023-05-19T07:22:58.676Z,100970.38
2023-05-19T07:26:01.187Z,100972.81
2023-05-19T07:29:03.801Z,100968.03
2023-05-19T07:32:06.758Z,100957.94
2023-05-19T07:35:09.450Z,100957.50
2023-05-19T07:38:12.199Z,100967.00
2023-05-19T07:41:15.050Z,100962.41
2023-05-19T07:44:17.352Z,100967.34
2023-05-19T07:47:19.866Z,100965.38
2023-05-19T07:50:22.305Z,100962.59
2023-05-19T07:53:24.885Z,100963.03
2023-05-19T07:56:27.374Z,100958.34
2023-05-19T07:59:29.867Z,100958.75
2023-05-19T08:02:32.201Z,100953.59
2023-05-19T08:05:36.131Z,100950.69
2023-05-19T08:08:38.298Z,100951.84
2023-05-19T08:11:41.081Z,100948.97
2023-05-19T08:14:43.265Z,100938.41
2023-05-19T08:17:46.021Z,100935.88
2023-05-19T08:20:48.281Z,100938.06
2023-05-19T08:23:51.166Z,100930.56
2023-05-19T08:26:53.376Z,100939.22
2023-05-19T08:29:56.150Z,100929.94
2023-05-19T08:32:58.451Z,100935.22
2023-05-19T08:36:01.642Z,100932.16
2023-05-19T08:39:04.076Z,100924.50
2023-05-19T08:42:10.040Z,100937.94
2023-05-19T08:45:13.102Z,100936.41
2023-05-19T08:48:18.711Z,100933.97
2023-05-19T08:51:32.140Z,100931.50
2023-05-19T08:54:50.888Z,100933.41
2023-05-19T08:57:53.480Z,100931.97
2023-05-19T09:00:57.747Z,100933.28
2023-05-19T09:04:00.200Z,100935.34
2023-05-19T09:07:04.038Z,100929.56
2023-05-19T09:10:08.926Z,100937.31
2023-05-19T09:13:11.683Z,100933.22
2023-05-19T09:16:14.334Z,100930.16
2023-05-19T09:19:17.076Z,100936.72
2023-05-19T09:22:20.588Z,100927.84
2023-05-19T09:25:24.019Z,100932.81
2023-05-19T09:28:34.264Z,100936.56
2023-05-19T09:31:36.861Z,100931.41
2023-05-19T09:34:42.173Z,100931.09
2023-05-19T09:37:44.696Z,100926.25
2023-05-19T09:40:49.747Z,100914.78
2023-05-19T09:43:56.311Z,100919.56
2023-05-19T09:46:58.876Z,100920.22
2023-05-19T09:50:01.492Z,100913.31
2023-05-19T09:53:04.071Z,100912.19
2023-05-19T09:56:08.843Z,100920.09
2023-05-19T09:59:14.110Z,100905.69
2023-05-19T10:02:20.224Z,100902.06
2023-05-19T10:05:23.692Z,100906.84
2023-05-19T10:08:27.491Z,100887.75
2023-05-19T10:11:30.963Z,100893.75
2023-05-19T10:14:33.285Z,100883.72
2023-05-19T10:17:38.180Z,100882.16
2023-05-19T10:20:41.347Z,100877.56
2023-05-19T10:23:43.840Z,100887.78
2023-05-19T10:26:55.158Z,100878.66
2023-05-19T10:30:02.218Z,100887.25
2023-05-19T10:33:08.073Z,100874.97
2023-05-19T10:36:37.961Z,100873.94
2023-05-19T10:39:44.609Z,100875.53
2023-05-19T10:42:57.942Z,100876.97
2023-05-19T10:46:00.862Z,100880.41
2023-05-19T10:49:03.371Z,100870.25
2023-05-19T10:52:21.459Z,100872.09
2023-05-19T10:55:46.732Z,100867.22
2023-05-19T10:58:50.522Z,100863.44
2023-05-19T11:01:53.200Z,100858.75
2023-05-19T11:04:58.405Z,100860.37
2023-05-19T11:08:11.634Z,100852.47
2023-05-19T11:11:17.547Z,100848.84
2023-05-19T11:14:27.168Z,100844.38
2023-05-19T11:17:29.526Z,100841.91
2023-05-19T11:20:34.804Z,100844.72
2023-05-19T11:23:40.239Z,100849.31
2023-05-19T11:26:46.311Z,100851.94
2023-05-19T11:29:49.416Z,100850.53
2023-05-19T11:32:54.392Z,100847.81
2023-05-19T11:35:58.498Z,100846.00
2023-05-19T11:39:33.192Z,100840.63
2023-05-19T11:42:48.424Z,100841.97
2023-05-19T11:45:54.278Z,100841.41
2023-05-19T11:48:58.291Z,100837.03
2023-05-19T11:52:03.898Z,100841.31
2023-05-19T11:55:06.809Z,100843.34
2023-05-19T11:58:09.314Z,100845.09
2023-05-19T12:01:11.580Z,100841.16
2023-05-19T12:04:14.095Z,100839.31
2023-05-19T12:07:18.406Z,100839.50
2023-05-19T12:10:26.103Z,100825.12
2023-05-19T12:13:28.891Z,100823.69
2023-05-19T12:16:35.427Z,100823.31
2023-05-19T12:19:37.969Z,100817.81
2023-05-19T12:22:40.772Z,100814.38
2023-05-19T12:25:43.081Z,100814.00
2023-05-19T12:28:46.189Z,100810.25
2023-05-19T12:31:49.421Z,100802.50
2023-05-19T12:34:53.212Z,100788.94
2023-05-19T12:37:55.840Z,100790.34
2023-05-19T12:40:59.995Z,100787.16
2023-05-19T12:44:02.150Z,100784.09
2023-05-19T12:47:06.074Z,100781.78
2023-05-19T12:50:09.915Z,100768.13
2023-05-19T12:53:14.424Z,100775.59
2023-05-19T12:56:17.116Z,100771.31
2023-05-19T12:59:37.407Z,100769.06
2023-05-19T13:03:06.653Z,100773.31
2023-05-19T13:06:10.403Z,100764.69
2023-05-19T13:09:13.101Z,100768.63
2023-05-19T13:12:16.524Z,100770.25
2023-05-19T13:15:18.765Z,100764.47
2023-05-19T13:18:21.424Z,100762.03
2023-05-19T13:21:25.480Z,100756.78
2023-05-19T13:24:29.608Z,100752.31
2023-05-19T13:27:31.827Z,100744.09
2023-05-19T13:30:36.462Z,100746.13
2023-05-19T13:33:39.047Z,100742.63
2023-05-19T13:36:42.811Z,100736.66
2023-05-19T13:39:45.073Z,100735.72
2023-05-19T13:42:48.139Z,100732.47
2023-05-19T13:45:50.446Z,100725.72
2023-05-19T13:48:53.134Z,100727.41
2023-05-19T13:51:58.637Z,100727.00
2023-05-19T13:55:01.195Z,100719.13
2023-05-19T13:58:03.547Z,100724.28
2023-05-19T14:01:06.109Z,100728.91
2023-05-19T14:04:08.714Z,100715.06
2023-05-19T14:07:11.079Z,100717.69
2023-05-19T14:10:13.610Z,100715.97
2023-05-19T14:13:30.960Z,100716.66
2023-05-19T14:16:36.357Z,100713.56
2023-05-19T14:19:40.865Z,100704.69
2023-05-19T14:22:43.389Z,100713.47
2023-05-19T14:25:45.776Z,100712.44
2023-05-19T14:28:48.242Z,100715.69
2023-05-19T14:31:50.598Z,100719.78
2023-05-19T14:34:53.335Z,100712.00
2023-05-19T14:37:55.686Z,100704.50
2023-05-19T14:40:58.162Z,100704.44
2023-05-19T14:44:00.510Z,100706.28
2023-05-19T14:47:04.119Z,100702.34
2023-05-19T14:50:06.829Z,100705.56
2023-05-19T14:53:09.431Z,100697.38
2023-05-19T14:56:11.603Z,100698.22
2023-05-19T14:59:14.146Z,100697.34
2023-05-19T15:02:16.441Z,100698.37
2023-05-19T15:05:19.047Z,100699.06
2023-05-19T15:08:21.302Z,100687.84
2023-05-19T15:11:24.182Z,100694.87
2023-05-19T15:14:27.859Z,100694.31
2023-05-19T15:17:31.225Z,100690.41
2023-05-19T15:20:33.710Z,100690.94
2023-05-19T15:23:36.396Z,100691.44
2023-05-19T15:26:38.606Z,100691.94
2023-05-19T15:29:41.261Z,100695.97
2023-05-19T15:32:43.483Z,100694.53
2023-05-19T15:35:47.654Z,100691.28
2023-05-19T15:38:49.838Z,100696.03
2023-05-19T15:41:52.303Z,100686.88
2023-05-19T15:44:54.549Z,100687.59
2023-05-19T15:47:57.129Z,100687.19
2023-05-19T15:50:59.808Z,100683.72
2023-05-19T15:54:02.333Z,100680.56
2023-05-19T15:57:04.699Z,100682.19
2023-05-19T16:00:07.824Z,100681.00
2023-05-19T16:03:11.099Z,100678.88
2023-05-19T16:06:13.489Z,100679.56
2023-05-19T16:09:16.374Z,100681.81
2023-05-19T16:12:18.665Z,100682.94
2023-05-19T16:15:21.178Z,100681.78
2023-05-19T16:18:23.639Z,100682.94
2023-05-19T16:21:26.201Z,100685.19
2023-05-19T16:24:28.415Z,100681.94
2023-05-19T16:27:30.847Z,100686.91
2023-05-19T16:30:33.331Z,100695.03
2023-05-19T16:33:35.920Z,100696.09
2023-05-19T16:36:38.292Z,100692.47
2023-05-19T16:39:43.670Z,100695.84
2023-05-19T16:42:45.935Z,100695.41
2023-05-19T16:45:48.462Z,100698.78
2023-05-19T16:48:50.920Z,100697.19
2023-05-19T16:51:54.220Z,100691.94
2023-05-19T16:54:56.501Z,100691.41
2023-05-19T16:57:59.288Z,100683.06
2023-05-19T17:01:01.609Z,100693.53
2023-05-19T17:04:04.179Z,100693.50
2023-05-19T17:07:06.404Z,100692.59
2023-05-19T17:10:09.563Z,100688.63
2023-05-19T17:13:11.947Z,100689.69
2023-05-19T17:16:14.686Z,100682.06
2023-05-19T17:19:16.971Z,100685.09
2023-05-19T17:22:19.500Z,100686.97
2023-05-19T17:25:21.677Z,100682.53
2023-05-19T17:28:24.178Z,100686.75
2023-05-19T17:31:26.385Z,100688.97
2023-05-19T17:34:30.013Z,100693.56
2023-05-19T17:37:33.175Z,100692.28
2023-05-19T17:40:36.721Z,100700.41
2023-05-19T17:43:41.280Z,100710.47
2023-05-19T17:46:43.762Z,100709.97
2023-05-19T17:49:45.984Z,100706.72
2023-05-19T17:52:48.890Z,100711.28
2023-05-19T17:55:53.446Z,100713.47
2023-05-19T17:58:56.220Z,100711.34
2023-05-19T18:01:58.793Z,100710.78
2023-05-19T18:05:01.815Z,100709.75
2023-05-19T18:08:07.722Z,100712.72
2023-05-19T18:11:13.350Z,100709.41
2023-05-19T18:14:15.539Z,100707.22
2023-05-19T18:17:18.001Z,100704.31
2023-05-19T18:20:20.366Z,100705.66
2023-05-19T18:23:22.851Z,100704.72
2023-05-19T18:26:25.070Z,100707.28
2023-05-19T18:29:27.588Z,100707.56
2023-05-19T18:32:30.132Z,100707.41
2023-05-19T18:35:32.725Z,100705.66
2023-05-19T18:41:41.153Z,100713.47
2023-05-19T18:44:46.717Z,100724.87
2023-05-19T18:47:49.225Z,100716.84
2023-05-19T18:50:51.854Z,100725.41
2023-05-19T18:53:54.294Z,100730.00
2023-05-19T18:56:56.487Z,100729.00
2023-05-19T18:59:58.983Z,100731.44
2023-05-19T19:03:01.787Z,100726.94
2023-05-19T19:06:04.367Z,100736.97
2023-05-19T19:09:07.212Z,100724.94
2023-05-19T19:12:10.630Z,100725.75
2023-05-19T19:15:12.915Z,100733.72
2023-05-19T19:18:15.877Z,100731.72
2023-05-19T19:21:19.811Z,100742.09
2023-05-19T19:24:22.330Z,100739.84
2023-05-19T19:27:26.300Z,100745.06
2023-05-19T19:30:29.476Z,100750.81
2023-05-19T19:33:31.749Z,100753.31
2023-05-19T19:36:34.762Z,100751.97
2023-05-19T19:39:38.020Z,100760.38
2023-05-19T19:42:40.723Z,100756.16
2023-05-19T19:45:43.001Z,100755.59
2023-05-19T19:48:45.620Z,100760.59
2023-05-19T19:51:47.864Z,100764.03
2023-05-19T19:54:50.571Z,100767.66
2023-05-19T19:57:52.863Z,100771.06
2023-05-19T20:00:59.703Z,100770.94
2023-05-19T20:04:02.290Z,100767.19
2023-05-19T20:07:04.855Z,100764.59
2023-05-19T20:10:08.212Z,100763.81
2023-05-19T20:13:10.492Z,100770.72
2023-05-19T20:16:13.095Z,100768.78
2023-05-19T20:19:15.470Z,100766.97
2023-05-19T20:22:17.975Z,100773.66
2023-05-19T20:25:20.342Z,100768.22
2023-05-19T20:28:24.127Z,100768.44
2023-05-19T20:31:26.608Z,100772.81
2023-05-19T20:34:29.115Z,100770.44
2023-05-19T20:37:31.358Z,100776.25
2023-05-19T20:40:33.849Z,100777.25
2023-05-19T20:43:36.287Z,100769.06
2023-05-19T20:46:38.779Z,100774.75
2023-05-19T20:49:40.978Z,100766.22
2023-05-19T20:52:43.536Z,100768.47
2023-05-19T20:55:46.253Z,100768.47
2023-05-19T20:58:48.709Z,100765.44
2023-05-19T21:01:51.232Z,100756.91
2023-05-19T21:04:53.989Z,100761.44
2023-05-19T21:07:56.369Z,100762.78
2023-05-19T21:10:59.353Z,100754.81
2023-05-19T21:14:04.191Z,100749.03
2023-05-19T21:17:07.383Z,100752.31
2023-05-19T21:20:10.297Z,100755.69
2023-05-19T21:23:12.795Z,100753.13
2023-05-19T21:26:15.159Z,100755.34
2023-05-19T21:29:17.578Z,100752.06
2023-05-19T21:32:20.744Z,100749.06
2023-05-19T21:35:23.219Z,100759.28
2023-05-19T21:38:25.518Z,100761.75
2023-05-19T21:41:28.265Z,100755.84
2023-05-19T21:44:31.933Z,100748.31
2023-05-19T21:47:34.426Z,100750.13
2023-05-19T21:50:37.674Z,100744.41
2023-05-19T21:53:40.249Z,100743.81
2023-05-19T21:56:42.437Z,100739.00
2023-05-19T21:59:45.081Z,100741.87
2023-05-19T22:02:47.428Z,100733.53
2023-05-19T22:05:51.639Z,100734.94
2023-05-19T22:08:53.839Z,100734.72
2023-05-19T22:11:56.306Z,100741.59
2023-05-19T22:14:58.728Z,100732.97
2023-05-19T22:18:01.287Z,100735.59
2023-05-19T22:21:03.797Z,100720.91
2023-05-19T22:24:06.448Z,100720.88
2023-05-19T22:27:08.752Z,100715.97
2023-05-19T22:30:11.264Z,100715.25
2023-05-19T22:33:13.582Z,100710.09
2023-05-19T22:36:16.498Z,100699.28
2023-05-19T22:39:18.668Z,100701.59
2023-05-19T22:42:21.237Z,100708.66
2023-05-19T22:45:23.422Z,100705.28
2023-05-19T22:48:26.092Z,100703.62
2023-05-19T22:51:28.302Z,100708.19
2023-05-19T22:54:30.952Z,100709.31
2023-05-19T22:57:33.135Z,100709.84
2023-05-19T23:00:35.709Z,100708.72
2023-05-19T23:03:38.015Z,100708.97
2023-05-19T23:06:41.299Z,100709.16
2023-05-19T23:09:43.498Z,100710.75
2023-05-19T23:12:45.945Z,100703.06
2023-05-19T23:15:48.740Z,100682.16
2023-05-19T23:18:51.350Z,100681.84
2023-05-19T23:21:53.685Z,100685.09
2023-05-19T23:24:56.201Z,100690.66
2023-05-19T23:27:58.424Z,100689.91
2023-05-19T23:31:01.479Z,100686.75
2023-05-19T23:34:03.746Z,100683.59
2023-05-19T23:37:06.357Z,100685.66
2023-05-19T23:40:09.111Z,100683.94
2023-05-19T23:43:11.630Z,100678.16
2023-05-19T23:46:13.900Z,100673.63
2023-05-19T23:49:16.501Z,100673.41
2023-05-19T23:52:18.700Z,100677.94
2023-05-19T23:55:21.329Z,100669.75
2023-05-19T23:58:23.611Z,100663.16
